sensor_id;sensor_type;location;lat;lon;timestamp;P1;P2;P0
76043;PMS7003;64740;34.694;33.088;2023-02-28T00:01:29;24.8;22.6;15.7
76043;PMS7003;64740;34.694;33.088;2023-02-28T00:06:53;26.2;23.8;16.7
76043;PMS7003;64740;34.694;33.088;2023-02-28T00:12:07;26.4;24;16.6
76043;PMS7003;64740;34.694;33.088;2023-02-28T00:16:29;26.2;23.7;16.7
76043;PMS7003;64740;34.694;33.088;2023-02-28T00:22:05;25;22.6;15.5
76043;PMS7003;64740;34.694;33.088;2023-02-28T00:26:17;27.1;23.5;16.2
76043;PMS7003;64740;34.694;33.088;2023-02-28T00:31:51;24.6;22;16.2
76043;PMS7003;64740;34.694;33.088;2023-02-28T00:37:05;26.3;23.3;15.9
76043;PMS7003;64740;34.694;33.088;2023-02-28T00:42:07;26.2;22.6;15.6
76043;PMS7003;64740;34.694;33.088;2023-02-28T00:46:43;26;23.5;16
76043;PMS7003;64740;34.694;33.088;2023-02-28T00:51:17;26.8;23.4;16.9
76043;PMS7003;64740;34.694;33.088;2023-02-28T00:56:53;26.6;23;15.8
76043;PMS7003;64740;34.694;33.088;2023-02-28T01:01:17;25.2;22.3;15.6
76043;PMS7003;64740;34.694;33.088;2023-02-28T01:07:07;25.2;22.8;16.2
76043;PMS7003;64740;34.694;33.088;2023-02-28T01:11:43;24.7;22.4;15.1
76043;PMS7003;64740;34.694;33.088;2023-02-28T01:16:41;23.8;21.4;14
76043;PMS7003;64740;34.694;33.088;2023-02-28T01:21:53;26.2;23.3;15.6
76043;PMS7003;64740;34.694;33.088;2023-02-28T01:26:31;26.1;23.4;16
76043;PMS7003;64740;34.694;33.088;2023-02-28T01:32:03;25.4;23.3;16.1
76043;PMS7003;64740;34.694;33.088;2023-02-28T01:36:41;24.6;22.6;15.9
76043;PMS7003;64740;34.694;33.088;2023-02-28T01:41:30;24.9;23.3;16.4
76043;PMS7003;64740;34.694;33.088;2023-02-28T01:46:19;24.8;22.4;16
76043;PMS7003;64740;34.694;33.088;2023-02-28T01:51:44;23.1;21;14.6
76043;PMS7003;64740;34.694;33.088;2023-02-28T01:57:06;25.1;22.7;16.2
76043;PMS7003;64740;34.694;33.088;2023-02-28T02:01:41;25.5;23.1;16.4
76043;PMS7003;64740;34.694;33.088;2023-02-28T02:06:17;26.5;23.8;16.8
76043;PMS7003;64740;34.694;33.088;2023-02-28T02:11:53;26.7;23.4;16.6
76043;PMS7003;64740;34.694;33.088;2023-02-28T02:16:45;27;24.2;16.9
76043;PMS7003;64740;34.694;33.088;2023-02-28T02:22:12;26.4;22.8;15.7
76043;PMS7003;64740;34.694;33.088;2023-02-28T02:26:36;27.4;24.4;16.4
76043;PMS7003;64740;34.694;33.088;2023-02-28T02:31:23;25.6;23.3;16.3
76043;PMS7003;64740;34.694;33.088;2023-02-28T02:36:27;28.4;24.2;16.5
76043;PMS7003;64740;34.694;33.088;2023-02-28T02:41:43;27.4;24.7;17.1
76043;PMS7003;64740;34.694;33.088;2023-02-28T02:47:08;26.9;23.5;16.9
76043;PMS7003;64740;34.694;33.088;2023-02-28T02:51:45;25.8;23.4;16.8
76043;PMS7003;64740;34.694;33.088;2023-02-28T02:56:41;28.3;25.2;17.3
76043;PMS7003;64740;34.694;33.088;2023-02-28T03:01:52;26.7;24.1;16.2
76043;PMS7003;64740;34.694;33.088;2023-02-28T03:06:29;26.9;24.8;17.2
76043;PMS7003;64740;34.694;33.088;2023-02-28T03:12:07;29.3;25.5;18.4
76043;PMS7003;64740;34.694;33.088;2023-02-28T03:16:46;27.2;24.5;17.3
76043;PMS7003;64740;34.694;33.088;2023-02-28T03:21:18;28.2;25.1;17.5
76043;PMS7003;64740;34.694;33.088;2023-02-28T03:26:54;28.5;25;17.5
76043;PMS7003;64740;34.694;33.088;2023-02-28T03:31:32;27.2;24.7;17.4
76043;PMS7003;64740;34.694;33.088;2023-02-28T03:37:04;27.9;25.5;18.1
76043;PMS7003;64740;34.694;33.088;2023-02-28T03:41:44;26.8;24.5;16.8
76043;PMS7003;64740;34.694;33.088;2023-02-28T03:46:30;28.7;25.6;17.8
76043;PMS7003;64740;34.694;33.088;2023-02-28T03:51:51;27.7;24.6;16.9
76043;PMS7003;64740;34.694;33.088;2023-02-28T03:56:18;27.5;24.5;17.4
76043;PMS7003;64740;34.694;33.088;2023-02-28T04:02:05;26.7;22.7;15.1
76043;PMS7003;64740;34.694;33.088;2023-02-28T04:06:18;30.2;26.5;18.2
76043;PMS7003;64740;34.694;33.088;2023-02-28T04:11:19;32.4;28.2;19
76043;PMS7003;64740;34.694;33.088;2023-02-28T04:16:40;31;27.6;18.9
76043;PMS7003;64740;34.694;33.088;2023-02-28T04:21:17;31.1;27.7;19.1
76043;PMS7003;64740;34.694;33.088;2023-02-28T04:27:05;31.3;27.2;18.8
76043;PMS7003;64740;34.694;33.088;2023-02-28T04:31:43;28.5;26.5;19.2
76043;PMS7003;64740;34.694;33.088;2023-02-28T04:36:29;30.1;27.8;19.1
76043;PMS7003;64740;34.694;33.088;2023-02-28T04:41:53;29.7;26.4;17.9
76043;PMS7003;64740;34.694;33.088;2023-02-28T04:46:29;32.1;28.1;19.5
76043;PMS7003;64740;34.694;33.088;2023-02-28T04:52:05;32.9;28.1;19.7
76043;PMS7003;64740;34.694;33.088;2023-02-28T04:56:39;32.5;28.8;19.9
76043;PMS7003;64740;34.694;33.088;2023-02-28T05:01:19;32.3;28.7;19.5
76043;PMS7003;64740;34.694;33.088;2023-02-28T05:06:49;31.3;28;19.2
76043;PMS7003;64740;34.694;33.088;2023-02-28T05:11:18;34;29.5;19.7
76043;PMS7003;64740;34.694;33.088;2023-02-28T05:17:05;29.9;27.2;19.1
76043;PMS7003;64740;34.694;33.088;2023-02-28T05:21:23;31;28;19.3
76043;PMS7003;64740;34.694;33.088;2023-02-28T05:27:05;31.6;28.8;20
76043;PMS7003;64740;34.694;33.088;2023-02-28T05:31:51;27.4;24.3;16.4
76043;PMS7003;64740;34.694;33.088;2023-02-28T05:36:17;32.9;29.1;19.8
76043;PMS7003;64740;34.694;33.088;2023-02-28T05:42:03;31.1;27.5;19.1
76043;PMS7003;64740;34.694;33.088;2023-02-28T05:46:41;32;27.9;19.3
76043;PMS7003;64740;34.694;33.088;2023-02-28T05:52:03;32.6;28.9;19.9
76043;PMS7003;64740;34.694;33.088;2023-02-28T05:56:39;35.1;30.4;20.4
76043;PMS7003;64740;34.694;33.088;2023-02-28T06:01:20;35.7;30.2;20.6
76043;PMS7003;64740;34.694;33.088;2023-02-28T06:07:03;36.5;31.2;20.9
76043;PMS7003;64740;34.694;33.088;2023-02-28T06:11:49;36.3;31.3;21.4
76043;PMS7003;64740;34.694;33.088;2023-02-28T06:17:03;33.8;29.7;19.9
76043;PMS7003;64740;34.694;33.088;2023-02-28T06:21:39;29.2;26;17.5
76043;PMS7003;64740;34.694;33.088;2023-02-28T06:26:17;34.3;30.1;20.3
76043;PMS7003;64740;34.694;33.088;2023-02-28T06:32:03;34.6;30.5;20.3
76043;PMS7003;64740;34.694;33.088;2023-02-28T06:36:27;34.8;30.1;19.8
76043;PMS7003;64740;34.694;33.088;2023-02-28T06:42:05;32.9;28.8;19.5
76043;PMS7003;64740;34.694;33.088;2023-02-28T06:46:51;41.1;33.1;22
76043;PMS7003;64740;34.694;33.088;2023-02-28T06:51:27;39.2;32;20.7
76043;PMS7003;64740;34.694;33.088;2023-02-28T06:57:03;38.4;33;21.9
76043;PMS7003;64740;34.694;33.088;2023-02-28T07:01:29;40.6;34.1;22.7
76043;PMS7003;64740;34.694;33.088;2023-02-28T07:07:03;40;34;22.6
76043;PMS7003;64740;34.694;33.088;2023-02-28T07:11:51;38.4;33.1;22.2
76043;PMS7003;64740;34.694;33.088;2023-02-28T07:16:17;41.3;34.6;23.1
76043;PMS7003;64740;34.694;33.088;2023-02-28T07:22:05;40.7;34.7;22.8
76043;PMS7003;64740;34.694;33.088;2023-02-28T07:26:18;40.6;34.4;22.8
76043;PMS7003;64740;34.694;33.088;2023-02-28T07:32:05;38.9;33.1;22.3
76043;PMS7003;64740;34.694;33.088;2023-02-28T07:36:52;38.7;33.3;22.5
76043;PMS7003;64740;34.694;33.088;2023-02-28T07:41:17;38.9;33.3;22.4
76043;PMS7003;64740;34.694;33.088;2023-02-28T07:47:03;39.4;33.2;22.3
76043;PMS7003;64740;34.694;33.088;2023-02-28T07:51:41;37.1;32;22.1
76043;PMS7003;64740;34.694;33.088;2023-02-28T07:57:03;34.2;30.7;20.5
76043;PMS7003;64740;34.694;33.088;2023-02-28T08:01:47;36.1;31.8;22
76043;PMS7003;64740;34.694;33.088;2023-02-28T08:06:18;37.6;32.4;21.7
76043;PMS7003;64740;34.694;33.088;2023-02-28T08:12:03;39.6;33.3;22.5
76043;PMS7003;64740;34.694;33.088;2023-02-28T08:16:39;41.4;34.5;23.2
76043;PMS7003;64740;34.694;33.088;2023-02-28T08:22:03;42.5;35.2;23.4
76043;PMS7003;64740;34.694;33.088;2023-02-28T08:26:49;40.4;33.2;22.7
76043;PMS7003;64740;34.694;33.088;2023-02-28T08:31:17;43;35.2;23.8
76043;PMS7003;64740;34.694;33.088;2023-02-28T08:37:03;44.1;36.4;24.1
76043;PMS7003;64740;34.694;33.088;2023-02-28T08:41:42;43.1;35.6;24
76043;PMS7003;64740;34.694;33.088;2023-02-28T08:46:49;44.2;35.7;24.1
76043;PMS7003;64740;34.694;33.088;2023-02-28T08:51:49;43.3;35.5;23.7
76043;PMS7003;64740;34.694;33.088;2023-02-28T08:56:49;44.1;36.2;24
76043;PMS7003;64740;34.694;33.088;2023-02-28T09:01:49;42.5;35;23.4
76043;PMS7003;64740;34.694;33.088;2023-02-28T09:06:41;41.1;34.9;23.4
76043;PMS7003;64740;34.694;33.088;2023-02-28T09:12:03;41.3;34.7;23.2
76043;PMS7003;64740;34.694;33.088;2023-02-28T09:16:47;36;30.3;20.4
76043;PMS7003;64740;34.694;33.088;2023-02-28T09:21:29;40.5;33.9;22.6
76043;PMS7003;64740;34.694;33.088;2023-02-28T09:26:49;40.8;33.9;22.8
76043;PMS7003;64740;34.694;33.088;2023-02-28T09:31:41;39.4;33.3;22.3
76043;PMS7003;64740;34.694;33.088;2023-02-28T09:37:03;40.7;33.6;22.6
76043;PMS7003;64740;34.694;33.088;2023-02-28T09:41:53;41.1;34.2;22.9
76043;PMS7003;64740;34.694;33.088;2023-02-28T09:46:38;39.9;33.5;22
76043;PMS7003;64740;34.694;33.088;2023-02-28T09:51:49;41.7;34.7;23.7
76043;PMS7003;64740;34.694;33.088;2023-02-28T09:56:30;39.3;33.4;22.6
76043;PMS7003;64740;34.694;33.088;2023-02-28T10:02:04;39.5;33.5;22.9
76043;PMS7003;64740;34.694;33.088;2023-02-28T10:06:49;40.8;33.9;22.7
76043;PMS7003;64740;34.694;33.088;2023-02-28T10:11:41;39.9;33.5;21.8
76043;PMS7003;64740;34.694;33.088;2023-02-28T10:16:52;38.9;33.1;22.5
76043;PMS7003;64740;34.694;33.088;2023-02-28T10:21:40;41.2;34.3;22.8
76043;PMS7003;64740;34.694;33.088;2023-02-28T10:27:05;41.1;34.1;22.5
76043;PMS7003;64740;34.694;33.088;2023-02-28T10:31:51;42;34.7;23.1
76043;PMS7003;64740;34.694;33.088;2023-02-28T10:36:39;39.3;34;23.2
76043;PMS7003;64740;34.694;33.088;2023-02-28T10:41:51;40.2;34.5;23.4
76043;PMS7003;64740;34.694;33.088;2023-02-28T10:46:29;40.3;33.7;23.3
76043;PMS7003;64740;34.694;33.088;2023-02-28T10:52:03;36.7;31.6;20.7
76043;PMS7003;64740;34.694;33.088;2023-02-28T10:56:27;37.6;32.4;22.2
76043;PMS7003;64740;34.694;33.088;2023-02-28T11:01:37;40.1;33.9;22.8
76043;PMS7003;64740;34.694;33.088;2023-02-28T11:06:56;41.8;34;22.9
76043;PMS7003;64740;34.694;33.088;2023-02-28T11:11:41;42.5;34.8;23.1
76043;PMS7003;64740;34.694;33.088;2023-02-28T11:16:49;38.3;33.3;22.1
76043;PMS7003;64740;34.694;33.088;2023-02-28T11:21:52;36.1;30.5;19.6
76043;PMS7003;64740;34.694;33.088;2023-02-28T11:26:35;39.6;33.5;22.8
76043;PMS7003;64740;34.694;33.088;2023-02-28T11:32:23;37.2;32.1;22
76043;PMS7003;64740;34.694;33.088;2023-02-28T11:36:43;42.9;34.6;23.2
76043;PMS7003;64740;34.694;33.088;2023-02-28T11:42:05;38.6;33;22.1
76043;PMS7003;64740;34.694;33.088;2023-02-28T11:46:21;44.4;36.5;24.1
76043;PMS7003;64740;34.694;33.088;2023-02-28T11:51:18;41.4;34.2;23.3
76043;PMS7003;64740;34.694;33.088;2023-02-28T11:56:52;38.8;33.6;23.2
76043;PMS7003;64740;34.694;33.088;2023-02-28T12:01:21;41.3;34.8;23.5
76043;PMS7003;64740;34.694;33.088;2023-02-28T12:07:03;41.3;34.9;23.7
76043;PMS7003;64740;34.694;33.088;2023-02-28T12:11:52;43.3;36.2;24.1
76043;PMS7003;64740;34.694;33.088;2023-02-28T12:16:45;46.9;38.7;26.1
76043;PMS7003;64740;34.694;33.088;2023-02-28T12:22:05;42.6;35.5;24.4
76043;PMS7003;64740;34.694;33.088;2023-02-28T12:26:53;41.3;34.7;23.9
76043;PMS7003;64740;34.694;33.088;2023-02-28T12:32:06;41.7;34.6;23.6
76043;PMS7003;64740;34.694;33.088;2023-02-28T12:36:53;40.3;33.9;22.7
76043;PMS7003;64740;34.694;33.088;2023-02-28T12:41:18;41.8;35.5;24.3
76043;PMS7003;64740;34.694;33.088;2023-02-28T12:46:54;39.7;33.7;22.9
76043;PMS7003;64740;34.694;33.088;2023-02-28T12:51:53;39.2;33.1;22.3
76043;PMS7003;64740;34.694;33.088;2023-02-28T12:57:06;38.6;33.1;22.2
76043;PMS7003;64740;34.694;33.088;2023-02-28T13:01:54;40.2;33.6;23
76043;PMS7003;64740;34.694;33.088;2023-02-28T13:06:59;40.7;34.6;23.4
76043;PMS7003;64740;34.694;33.088;2023-02-28T13:12:12;38.6;33.6;23.2
76043;PMS7003;64740;34.694;33.088;2023-02-28T13:16:51;38.4;32.9;22.6
76043;PMS7003;64740;34.694;33.088;2023-02-28T13:21:49;37.8;32.7;22.5
76043;PMS7003;64740;34.694;33.088;2023-02-28T13:27:24;39.2;33.5;23.2
76043;PMS7003;64740;34.694;33.088;2023-02-28T13:31:17;39.5;33.3;22.7
76043;PMS7003;64740;34.694;33.088;2023-02-28T13:37:32;39.1;33.6;22.7
76043;PMS7003;64740;34.694;33.088;2023-02-28T13:41:49;40.4;33.9;23.3
76043;PMS7003;64740;34.694;33.088;2023-02-28T13:47:24;39.4;34;22.9
76043;PMS7003;64740;34.694;33.088;2023-02-28T13:51:44;40.4;34;23.5
76043;PMS7003;64740;34.694;33.088;2023-02-28T13:56:32;39.8;33.4;22.7
76043;PMS7003;64740;34.694;33.088;2023-02-28T14:02:27;39.9;34.2;23.1
76043;PMS7003;64740;34.694;33.088;2023-02-28T14:06:29;41.8;35;23.9
76043;PMS7003;64740;34.694;33.088;2023-02-28T14:11:28;38.3;33.3;22.7
76043;PMS7003;64740;34.694;33.088;2023-02-28T14:16:43;41.8;34.9;23.7
76043;PMS7003;64740;34.694;33.088;2023-02-28T14:21:28;39.4;33.8;22.8
76043;PMS7003;64740;34.694;33.088;2023-02-28T14:27:05;40.8;34.2;23.3
76043;PMS7003;64740;34.694;33.088;2023-02-28T14:31:29;42.7;35.2;23.9
76043;PMS7003;64740;34.694;33.088;2023-02-28T14:36:51;41.3;35.2;24.2
76043;PMS7003;64740;34.694;33.088;2023-02-28T14:41:30;43.4;36.4;24.6
76043;PMS7003;64740;34.694;33.088;2023-02-28T14:46:32;44.2;36.6;24.4
76043;PMS7003;64740;34.694;33.088;2023-02-28T14:52:05;43.5;36.3;24.3
76043;PMS7003;64740;34.694;33.088;2023-02-28T14:56:28;43.1;36.2;24.4
76043;PMS7003;64740;34.694;33.088;2023-02-28T15:01:49;42.4;35.6;24.2
76043;PMS7003;64740;34.694;33.088;2023-02-28T15:06:41;42.8;35.6;24
76043;PMS7003;64740;34.694;33.088;2023-02-28T15:11:41;42.4;35.5;23.9
76043;PMS7003;64740;34.694;33.088;2023-02-28T15:17:06;42.8;35.6;24
76043;PMS7003;64740;34.694;33.088;2023-02-28T15:21:18;40.9;34.6;23.9
76043;PMS7003;64740;34.694;33.088;2023-02-28T15:26:53;43.9;36.2;23.9
76043;PMS7003;64740;34.694;33.088;2023-02-28T15:31:19;43.6;36.5;24.2
76043;PMS7003;64740;34.694;33.088;2023-02-28T15:36:30;44;36;23.9
76043;PMS7003;64740;34.694;33.088;2023-02-28T15:42:16;43.4;35.2;24
76043;PMS7003;64740;34.694;33.088;2023-02-28T15:46:31;41.9;35.4;23.7
76043;PMS7003;64740;34.694;33.088;2023-02-28T15:51:51;44.4;36.3;23.8
76043;PMS7003;64740;34.694;33.088;2023-02-28T15:56:43;42.7;35.7;23.8
76043;PMS7003;64740;34.694;33.088;2023-02-28T16:01:19;44.1;36.2;24.2
76043;PMS7003;64740;34.694;33.088;2023-02-28T16:07:05;45.4;37.3;24.7
76043;PMS7003;64740;34.694;33.088;2023-02-28T16:11:52;45.8;37.6;24.6
76043;PMS7003;64740;34.694;33.088;2023-02-28T16:16:52;41.6;34.3;23.2
76043;PMS7003;64740;34.694;33.088;2023-02-28T16:21:17;40.1;34.1;22.8
76043;PMS7003;64740;34.694;33.088;2023-02-28T16:26:29;37.9;31.9;21.8
76043;PMS7003;64740;34.694;33.088;2023-02-28T16:32:05;34.8;29.4;19.6
76043;PMS7003;64740;34.694;33.088;2023-02-28T16:36:41;35.9;30.6;20.5
76043;PMS7003;64740;34.694;33.088;2023-02-28T16:41:49;35.7;31;21.1
76043;PMS7003;64740;34.694;33.088;2023-02-28T16:46:17;36.9;31.4;21.5
76043;PMS7003;64740;34.694;33.088;2023-02-28T16:51:29;36.1;30.9;20.9
76043;PMS7003;64740;34.694;33.088;2023-02-28T16:57:05;34.7;30.3;20.3
76043;PMS7003;64740;34.694;33.088;2023-02-28T17:01:43;35.3;30.4;20.8
76043;PMS7003;64740;34.694;33.088;2023-02-28T17:06:51;37;31.3;20.9
76043;PMS7003;64740;34.694;33.088;2023-02-28T17:11:43;36.1;31.7;21.3
76043;PMS7003;64740;34.694;33.088;2023-02-28T17:16:32;35.8;31;21.1
76043;PMS7003;64740;34.694;33.088;2023-02-28T17:21:39;36.1;31;20.8
76043;PMS7003;64740;34.694;33.088;2023-02-28T17:26:31;36.5;30.3;20.2
76043;PMS7003;64740;34.694;33.088;2023-02-28T17:32:05;33.1;28.9;20.1
76043;PMS7003;64740;34.694;33.088;2023-02-28T17:37:05;37.1;31.8;20.8
76043;PMS7003;64740;34.694;33.088;2023-02-28T17:41:17;36.4;32.1;21.7
76043;PMS7003;64740;34.694;33.088;2023-02-28T17:46:29;35.9;31.2;20.9
76043;PMS7003;64740;34.694;33.088;2023-02-28T17:51:18;35.5;30.8;20.6
76043;PMS7003;64740;34.694;33.088;2023-02-28T17:57:05;35.5;30.6;20.9
76043;PMS7003;64740;34.694;33.088;2023-02-28T18:01:53;34.7;29.4;20.4
76043;PMS7003;64740;34.694;33.088;2023-02-28T18:06:31;36;31.2;21.1
76043;PMS7003;64740;34.694;33.088;2023-02-28T18:11:37;35.5;30.7;20.3
76043;PMS7003;64740;34.694;33.088;2023-02-28T18:16:31;36.4;31.5;20.8
76043;PMS7003;64740;34.694;33.088;2023-02-28T18:22:04;38.7;32.1;21.2
76043;PMS7003;64740;34.694;33.088;2023-02-28T18:26:44;35.8;31.7;21.6
76043;PMS7003;64740;34.694;33.088;2023-02-28T18:31:18;36.9;32;21.6
76043;PMS7003;64740;34.694;33.088;2023-02-28T18:36:39;37.2;31.8;21.2
76043;PMS7003;64740;34.694;33.088;2023-02-28T18:41:39;36.6;31.5;20.2
76043;PMS7003;64740;34.694;33.088;2023-02-28T18:47:05;36.9;31.4;21.4
76043;PMS7003;64740;34.694;33.088;2023-02-28T18:51:55;38.3;32.3;22
76043;PMS7003;64740;34.694;33.088;2023-02-28T18:56:18;34.6;30.8;20.5
76043;PMS7003;64740;34.694;33.088;2023-02-28T19:01:38;35.1;31;20.7
76043;PMS7003;64740;34.694;33.088;2023-02-28T19:06:39;34.7;30.7;21.2
76043;PMS7003;64740;34.694;33.088;2023-02-28T19:12:05;34.4;29.8;20.6
76043;PMS7003;64740;34.694;33.088;2023-02-28T19:16:55;36.5;31.2;20.9
76043;PMS7003;64740;34.694;33.088;2023-02-28T19:21:18;34.6;29.2;19.5
76043;PMS7003;64740;34.694;33.088;2023-02-28T19:26:29;35.5;30.4;20.5
76043;PMS7003;64740;34.694;33.088;2023-02-28T19:31:18;34.1;30.6;20.7
76043;PMS7003;64740;34.694;33.088;2023-02-28T19:37:05;32.3;29.5;20.1
76043;PMS7003;64740;34.694;33.088;2023-02-28T19:41:55;33.5;29.3;19.8
76043;PMS7003;64740;34.694;33.088;2023-02-28T19:46:39;30.8;27.8;18.2
76043;PMS7003;64740;34.694;33.088;2023-02-28T19:51:39;33.3;28.8;19.3
76043;PMS7003;64740;34.694;33.088;2023-02-28T19:56:17;28.4;24.9;17.6
76043;PMS7003;64740;34.694;33.088;2023-02-28T20:02:03;33.1;28.3;19.2
76043;PMS7003;64740;34.694;33.088;2023-02-28T20:06:55;34;29.5;19.5
76043;PMS7003;64740;34.694;33.088;2023-02-28T20:11:31;32.2;28.5;19
76043;PMS7003;64740;34.694;33.088;2023-02-28T20:16:53;32.9;29.5;19.8
76043;PMS7003;64740;34.694;33.088;2023-02-28T20:21:29;32.1;27.5;18.6
76043;PMS7003;64740;34.694;33.088;2023-02-28T20:27:03;29.3;24;15.8
76043;PMS7003;64740;34.694;33.088;2023-02-28T20:31:55;32.1;28.8;18.7
76043;PMS7003;64740;34.694;33.088;2023-02-28T20:36:25;33.2;28.3;19.1
76043;PMS7003;64740;34.694;33.088;2023-02-28T20:41:39;33.3;28.9;19.1
76043;PMS7003;64740;34.694;33.088;2023-02-28T20:46:17;32.6;28.5;19.2
76043;PMS7003;64740;34.694;33.088;2023-02-28T20:52:05;31.4;28.1;19.2
76043;PMS7003;64740;34.694;33.088;2023-02-28T20:56:53;27.4;23.8;15.8
76043;PMS7003;64740;34.694;33.088;2023-02-28T21:01:31;29.2;25.7;17.3
76043;PMS7003;64740;34.694;33.088;2023-02-28T21:06:40;29.6;26;18
76043;PMS7003;64740;34.694;33.088;2023-02-28T21:11:31;27.9;24.5;17.4
76043;PMS7003;64740;34.694;33.088;2023-02-28T21:17:05;32.1;27.7;18.8
76043;PMS7003;64740;34.694;33.088;2023-02-28T21:21:55;29.8;25.9;18
76043;PMS7003;64740;34.694;33.088;2023-02-28T21:27:03;27.9;24.9;17.2
76043;PMS7003;64740;34.694;33.088;2023-02-28T21:31:39;29.6;26.6;18.1
76043;PMS7003;64740;34.694;33.088;2023-02-28T21:36:30;30;26.1;18.5
76043;PMS7003;64740;34.694;33.088;2023-02-28T21:42:05;26.8;23.5;16
76043;PMS7003;64740;34.694;33.088;2023-02-28T21:46:53;28.7;25.2;17.6
76043;PMS7003;64740;34.694;33.088;2023-02-28T21:52:05;29.8;26;17.9
76043;PMS7003;64740;34.694;33.088;2023-02-28T21:56:39;27.7;24.8;17.3
76043;PMS7003;64740;34.694;33.088;2023-02-28T22:01:38;26.1;24.2;16.9
76043;PMS7003;64740;34.694;33.088;2023-02-28T22:07:05;30.5;26;17.3
76043;PMS7003;64740;34.694;33.088;2023-02-28T22:11:55;26.1;24;16.8
76043;PMS7003;64740;34.694;33.088;2023-02-28T22:17:03;27.7;25;16.9
76043;PMS7003;64740;34.694;33.088;2023-02-28T22:21:17;26.6;24.7;17.4
76043;PMS7003;64740;34.694;33.088;2023-02-28T22:26:18;27.6;25;17.6
76043;PMS7003;64740;34.694;33.088;2023-02-28T22:32:07;29;25.1;18
76043;PMS7003;64740;34.694;33.088;2023-02-28T22:36:55;28.9;25;17.6
76043;PMS7003;64740;34.694;33.088;2023-02-28T22:42:03;31.7;26.7;17.9
76043;PMS7003;64740;34.694;33.088;2023-02-28T22:46:26;28.7;26.4;17.8
76043;PMS7003;64740;34.694;33.088;2023-02-28T22:51:18;29;25.8;17.2
76043;PMS7003;64740;34.694;33.088;2023-02-28T22:57:01;27.2;24.7;16.7
76043;PMS7003;64740;34.694;33.088;2023-02-28T23:01:33;27.3;24.5;16.9
76043;PMS7003;64740;34.694;33.088;2023-02-28T23:07:05;26.7;24.6;17.5
76043;PMS7003;64740;34.694;33.088;2023-02-28T23:11:18;28.2;24.6;17.1
76043;PMS7003;64740;34.694;33.088;2023-02-28T23:16:30;27.2;24.6;16.9
76043;PMS7003;64740;34.694;33.088;2023-02-28T23:22:03;27.8;25.3;17.4
76043;PMS7003;64740;34.694;33.088;2023-02-28T23:26:52;26.9;24.3;16
76043;PMS7003;64740;34.694;33.088;2023-02-28T23:31:49;25.4;23.1;16
76043;PMS7003;64740;34.694;33.088;2023-02-28T23:36:38;27.3;24.4;16.7
76043;PMS7003;64740;34.694;33.088;2023-02-28T23:41:29;28.4;25.3;17.2
76043;PMS7003;64740;34.694;33.088;2023-02-28T23:47:01;27.5;24.6;17.5
76043;PMS7003;64740;34.694;33.088;2023-02-28T23:51:51;28;25.5;17.4
76043;PMS7003;64740;34.694;33.088;2023-02-28T23:57:01;28.2;25.4;17.6
